Time,TemperatureF,DewpointF,PressureIn,WindDirection,WindDirectionDegrees,WindSpeedMPH,WindSpeedGustMPH,Humidity,HourlyPrecipIn,Conditions,Clouds,dailyrainin,SolarRadiationWatts/m^2,SoftwareType,DateUTC
2013-02-12 00:01:00,16.3,12.6,30.04,West,265,3.0,6.0,85,0.00,,---,0.00,0.00,VWS V14.01,2013-02-12 06:01:00,
2013-02-12 00:06:00,16.1,12.4,30.04,WSW,254,1.0,6.0,85,0.00,,---,0.00,0.00,VWS V14.01,2013-02-12 06:06:00,
2013-02-12 00:11:00,15.9,12.2,30.04,WSW,256,5.0,6.0,85,0.00,,---,0.00,0.00,VWS V14.01,2013-02-12 06:11:00,
2013-02-12 00:16:00,15.8,12.1,30.04,WSW,254,4.0,5.0,85,0.00,,---,0.00,0.00,VWS V14.01,2013-02-12 06:16:00,
2013-02-12 00:22:00,15.7,12.0,30.04,WSW,253,1.0,5.0,85,0.00,,---,0.00,0.00,VWS V14.01,2013-02-12 06:22:00,
2013-02-12 00:27:00,15.6,11.9,30.04,WSW,257,5.0,5.0,85,0.00,,---,0.00,0.00,VWS V14.01,2013-02-12 06:27:00,
2013-02-12 00:32:00,15.5,11.8,30.04,West,263,2.0,6.0,85,0.00,,---,0.00,0.00,VWS V14.01,2013-02-12 06:32:00,
2013-02-12 00:37:00,15.4,11.7,30.04,West,260,3.0,4.0,85,0.00,,---,0.00,0.00,VWS V14.01,2013-02-12 06:37:00,
2013-02-12 00:42:00,15.2,11.5,30.04,WSW,247,3.0,6.0,85,0.00,,---,0.00,0.00,VWS V14.01,2013-02-12 06:42:00,
2013-02-12 00:47:00,15.1,11.4,30.04,WSW,247,3.0,7.0,85,0.00,,---,0.00,0.00,VWS V14.01,2013-02-12 06:47:00,
2013-02-12 00:52:00,14.9,11.2,30.04,WSW,249,1.0,5.0,85,0.00,,---,0.00,0.00,VWS V14.01,2013-02-12 06:52:00,
2013-02-12 00:57:00,14.8,11.1,30.04,WSW,249,4.0,5.0,85,0.00,,---,0.00,0.00,VWS V14.01,2013-02-12 06:57:00,
2013-02-12 01:02:00,14.6,10.9,30.03,WSW,249,5.0,5.0,85,0.00,,---,0.00,0.00,VWS V14.01,2013-02-12 07:02:00,
2013-02-12 01:07:00,14.6,10.9,30.03,WSW,248,3.0,4.0,85,0.00,,---,0.00,0.00,VWS V14.01,2013-02-12 07:07:00,
2013-02-12 01:12:00,14.4,10.7,30.03,WSW,248,2.0,6.0,85,0.00,,---,0.00,0.00,VWS V14.01,2013-02-12 07:12:00,
2013-02-12 01:17:00,14.4,10.7,30.03,WSW,246,2.0,5.0,85,0.00,,---,0.00,0.00,VWS V14.01,2013-02-12 07:17:00,
2013-02-12 01:22:00,14.4,10.7,30.03,WSW,248,4.0,7.0,85,0.00,,---,0.00,0.00,VWS V14.01,2013-02-12 07:22:00,
2013-02-12 01:27:00,14.4,10.7,30.03,WSW,245,2.0,6.0,85,0.00,,---,0.00,0.00,VWS V14.01,2013-02-12 07:27:00,
2013-02-12 01:32:00,14.5,11.1,30.04,WSW,244,3.0,5.0,86,0.00,,---,0.00,0.00,VWS V14.01,2013-02-12 07:32:00,
2013-02-12 01:38:00,14.8,11.4,30.04,WSW,246,4.0,10.0,86,0.00,,---,0.00,0.00,VWS V14.01,2013-02-12 07:38:00,
2013-02-12 01:43:00,15.1,11.7,30.04,WSW,249,3.0,4.0,86,0.00,,---,0.00,0.00,VWS V14.01,2013-02-12 07:43:00,
2013-02-12 01:48:00,15.4,12.0,30.03,WSW,242,6.0,7.0,86,0.00,,---,0.00,0.00,VWS V14.01,2013-02-12 07:48:00,
2013-02-12 01:53:00,15.6,12.4,30.03,WSW,240,4.0,9.0,87,0.00,,---,0.00,0.00,VWS V14.01,2013-02-12 07:53:00,
2013-02-12 01:58:00,15.8,12.4,30.03,WSW,251,4.0,10.0,86,0.00,,---,0.00,0.00,VWS V14.01,2013-02-12 07:58:00,
2013-02-12 02:03:00,16.0,12.6,30.03,SW,229,9.0,9.0,86,0.00,,---,0.00,0.00,VWS V14.01,2013-02-12 08:03:00,
2013-02-12 02:08:00,16.1,12.7,30.03,West,271,8.0,8.0,86,0.00,,---,0.00,0.00,VWS V14.01,2013-02-12 08:08:00,
2013-02-12 02:13:00,16.2,12.8,30.03,SW,234,6.0,7.0,86,0.00,,---,0.00,0.00,VWS V14.01,2013-02-12 08:13:00,
2013-02-12 02:18:00,16.4,12.9,30.04,WSW,245,5.0,9.0,86,0.00,,---,0.00,0.00,VWS V14.01,2013-02-12 08:18:00,
2013-02-12 02:23:00,16.5,13.1,30.04,WSW,241,6.0,9.0,86,0.00,,---,0.00,0.00,VWS V14.01,2013-02-12 08:23:00,
2013-02-12 02:28:00,16.7,13.2,30.04,WSW,243,5.0,7.0,86,0.00,,---,0.00,0.00,VWS V14.01,2013-02-12 08:28:00,
2013-02-12 02:33:00,16.7,13.2,30.04,SW,234,5.0,9.0,86,0.00,,---,0.00,0.00,VWS V14.01,2013-02-12 08:33:00,
2013-02-12 02:39:00,16.8,13.4,30.04,SW,236,2.0,8.0,86,0.00,,---,0.00,0.00,VWS V14.01,2013-02-12 08:39:00,
2013-02-12 02:44:00,16.8,13.4,30.04,West,272,3.0,6.0,86,0.00,,---,0.00,0.00,VWS V14.01,2013-02-12 08:44:00,
2013-02-12 02:49:00,16.9,13.4,30.03,WSW,239,6.0,6.0,86,0.00,,---,0.00,0.00,VWS V14.01,2013-02-12 08:49:00,
2013-02-12 02:54:00,17.0,13.5,30.03,WSW,238,2.0,7.0,86,0.00,,---,0.00,0.00,VWS V14.01,2013-02-12 08:54:00,
2013-02-12 02:59:00,17.1,13.6,30.03,SW,235,3.0,6.0,86,0.00,,---,0.00,0.00,VWS V14.01,2013-02-12 08:59:00,
2013-02-12 03:04:00,17.1,13.6,30.03,SW,232,4.0,9.0,86,0.00,,---,0.00,0.00,VWS V14.01,2013-02-12 09:04:00,
2013-02-12 03:09:00,17.2,14.0,30.03,WSW,240,6.0,7.0,87,0.00,,---,0.00,0.00,VWS V14.01,2013-02-12 09:09:00,
2013-02-12 03:14:00,17.3,13.8,30.03,SW,231,0.0,5.0,86,0.00,,---,0.00,0.00,VWS V14.01,2013-02-12 09:14:00,
2013-02-12 03:19:00,17.3,13.8,30.03,SW,223,7.0,7.0,86,0.00,,---,0.00,0.00,VWS V14.01,2013-02-12 09:19:00,
2013-02-12 03:24:00,17.5,14.0,30.03,SW,230,5.0,6.0,86,0.00,,---,0.00,0.00,VWS V14.01,2013-02-12 09:24:00,
2013-02-12 03:29:00,17.6,14.1,30.03,SW,226,5.0,6.0,86,0.00,,---,0.00,0.00,VWS V14.01,2013-02-12 09:29:00,
2013-02-12 03:34:00,17.7,14.2,30.03,SW,226,2.0,5.0,86,0.00,,---,0.00,0.00,VWS V14.01,2013-02-12 09:34:00,
2013-02-12 03:39:00,17.7,14.2,30.03,SW,225,5.0,6.0,86,0.00,,---,0.00,0.00,VWS V14.01,2013-02-12 09:39:00,
2013-02-12 03:44:00,17.8,14.3,30.03,SW,225,6.0,10.0,86,0.00,,---,0.00,0.00,VWS V14.01,2013-02-12 09:44:00,
2013-02-12 03:49:00,17.8,14.3,30.03,SW,222,7.0,9.0,86,0.00,,---,0.00,0.00,VWS V14.01,2013-02-12 09:49:00,
2013-02-12 03:54:00,17.8,14.3,30.03,SW,225,4.0,7.0,86,0.00,,---,0.00,0.00,VWS V14.01,2013-02-12 09:54:00,
2013-02-12 03:59:00,17.9,14.4,30.03,SW,229,3.0,4.0,86,0.00,,---,0.00,0.00,VWS V14.01,2013-02-12 09:59:00,
2013-02-12 04:04:00,17.9,14.4,30.02,SW,222,6.0,6.0,86,0.00,,---,0.00,0.00,VWS V14.01,2013-02-12 10:04:00,
2013-02-12 04:10:00,17.9,14.4,30.02,SW,215,7.0,7.0,86,0.00,,---,0.00,0.00,VWS V14.01,2013-02-12 10:10:00,
2013-02-12 04:15:00,17.9,14.2,30.02,SW,215,5.0,7.0,85,0.00,,---,0.00,0.00,VWS V14.01,2013-02-12 10:15:00,
2013-02-12 04:20:00,18.0,14.3,30.01,SW,215,5.0,6.0,85,0.00,,---,0.00,0.00,VWS V14.01,2013-02-12 10:20:00,
2013-02-12 04:25:00,18.1,14.4,30.01,SW,216,6.0,6.0,85,0.00,,---,0.00,0.00,VWS V14.01,2013-02-12 10:25:00,
2013-02-12 04:30:00,18.2,14.5,30.01,SW,217,6.0,9.0,85,0.00,,---,0.00,0.00,VWS V14.01,2013-02-12 10:30:00,
2013-02-12 04:35:00,18.3,14.6,30.02,SW,225,4.0,6.0,85,0.00,,---,0.00,0.00,VWS V14.01,2013-02-12 10:35:00,
2013-02-12 04:40:00,18.4,14.6,30.02,SSW,202,6.0,7.0,85,0.00,,---,0.00,0.00,VWS V14.01,2013-02-12 10:40:00,
2013-02-12 04:45:00,18.4,14.4,30.01,SSW,202,6.0,6.0,84,0.00,,---,0.00,0.00,VWS V14.01,2013-02-12 10:45:00,
2013-02-12 04:50:00,18.5,14.5,30.01,SSW,199,3.0,5.0,84,0.00,,---,0.00,0.00,VWS V14.01,2013-02-12 10:50:00,
2013-02-12 04:56:00,18.6,14.6,30.01,SSW,199,5.0,7.0,84,0.00,,---,0.00,0.00,VWS V14.01,2013-02-12 10:56:00,
2013-02-12 05:01:00,18.7,14.7,30.01,SSW,199,5.0,6.0,84,0.00,,---,0.00,0.00,VWS V14.01,2013-02-12 11:01:00,
2013-02-12 05:06:00,18.8,14.8,30.01,SSW,196,3.0,7.0,84,0.00,,---,0.00,0.00,VWS V14.01,2013-02-12 11:06:00,
2013-02-12 05:11:00,18.9,14.9,30.01,SSW,196,3.0,6.0,84,0.00,,---,0.00,0.00,VWS V14.01,2013-02-12 11:11:00,
2013-02-12 05:16:00,18.9,14.9,30.00,SSW,194,3.0,5.0,84,0.00,,---,0.00,0.00,VWS V14.01,2013-02-12 11:16:00,
2013-02-12 05:21:00,19.0,15.0,30.00,SSW,194,2.0,4.0,84,0.00,,---,0.00,0.00,VWS V14.01,2013-02-12 11:21:00,
2013-02-12 05:26:00,19.0,15.0,30.00,SSW,194,3.0,6.0,84,0.00,,---,0.00,0.00,VWS V14.01,2013-02-12 11:26:00,
2013-02-12 05:31:00,19.0,15.0,30.00,SSW,194,5.0,6.0,84,0.00,,---,0.00,0.00,VWS V14.01,2013-02-12 11:31:00,
2013-02-12 05:36:00,19.1,15.1,30.00,SSW,198,5.0,7.0,84,0.00,,---,0.00,0.00,VWS V14.01,2013-02-12 11:36:00,
2013-02-12 05:41:00,19.1,15.1,30.00,SSW,196,4.0,6.0,84,0.00,,---,0.00,0.00,VWS V14.01,2013-02-12 11:41:00,
2013-02-12 05:46:00,19.1,15.1,30.00,SSW,197,3.0,5.0,84,0.00,,---,0.00,0.00,VWS V14.01,2013-02-12 11:46:00,
2013-02-12 05:51:00,19.2,15.2,30.00,SSW,195,4.0,7.0,84,0.00,,---,0.00,0.00,VWS V14.01,2013-02-12 11:51:00,
2013-02-12 05:56:00,19.2,15.2,30.00,SSW,196,3.0,5.0,84,0.00,,---,0.00,0.00,VWS V14.01,2013-02-12 11:56:00,
2013-02-12 06:01:00,19.2,15.2,30.00,SSW,204,5.0,5.0,84,0.00,,---,0.00,0.00,VWS V14.01,2013-02-12 12:01:00,
2013-02-12 06:07:00,19.3,15.3,30.00,SW,219,5.0,11.0,84,0.00,,---,0.00,0.00,VWS V14.01,2013-02-12 12:07:00,
2013-02-12 06:12:00,19.2,15.2,30.00,SSW,204,9.0,10.0,84,0.00,,---,0.00,0.00,VWS V14.01,2013-02-12 12:12:00,
2013-02-12 06:17:00,19.1,15.1,30.00,SSW,202,9.0,9.0,84,0.00,,---,0.00,0.00,VWS V14.01,2013-02-12 12:17:00,
2013-02-12 06:22:00,18.9,14.9,30.00,SSW,205,5.0,7.0,84,0.00,,---,0.00,0.00,VWS V14.01,2013-02-12 12:22:00,
2013-02-12 06:27:00,18.8,14.8,30.00,SSW,203,6.0,9.0,84,0.00,,---,0.00,0.00,VWS V14.01,2013-02-12 12:27:00,
2013-02-12 06:32:00,18.6,14.6,29.99,SSW,202,4.0,10.0,84,0.00,,---,0.00,0.00,VWS V14.01,2013-02-12 12:32:00,
2013-02-12 06:37:00,18.5,14.5,29.99,SW,219,5.0,9.0,84,0.00,,---,0.00,0.00,VWS V14.01,2013-02-12 12:37:00,
2013-02-12 06:42:00,18.4,14.6,29.99,SSW,198,4.0,6.0,85,0.00,,---,0.00,0.00,VWS V14.01,2013-02-12 12:42:00,
2013-02-12 06:47:00,18.3,14.6,29.99,SSW,195,3.0,5.0,85,0.00,,---,0.00,0.00,VWS V14.01,2013-02-12 12:47:00,
2013-02-12 06:52:00,18.2,14.5,29.99,South,188,4.0,7.0,85,0.00,,---,0.00,0.00,VWS V14.01,2013-02-12 12:52:00,
2013-02-12 06:57:00,18.2,14.5,29.99,South,187,3.0,5.0,85,0.00,,---,0.00,0.00,VWS V14.01,2013-02-12 12:57:00,
2013-02-12 07:02:00,18.0,14.3,29.99,South,184,2.0,4.0,85,0.00,,---,0.00,0.00,VWS V14.01,2013-02-12 13:02:00,
2013-02-12 07:07:00,18.0,14.3,29.99,South,181,3.0,4.0,85,0.00,,---,0.00,0.00,VWS V14.01,2013-02-12 13:07:00,
2013-02-12 07:12:00,17.9,14.2,29.99,South,179,3.0,5.0,85,0.00,,---,0.00,0.00,VWS V14.01,2013-02-12 13:12:00,
2013-02-12 07:17:00,17.8,14.1,29.99,South,179,4.0,6.0,85,0.00,,---,0.00,0.00,VWS V14.01,2013-02-12 13:17:00,
2013-02-12 07:22:00,17.7,14.0,29.99,South,178,3.0,4.0,85,0.00,,---,0.00,5.00,VWS V14.01,2013-02-12 13:22:00,
2013-02-12 07:28:00,17.6,13.9,29.99,South,169,2.0,6.0,85,0.00,,---,0.00,9.00,VWS V14.01,2013-02-12 13:28:00,
2013-02-12 07:33:00,17.5,14.0,29.98,South,175,5.0,5.0,86,0.00,,---,0.00,11.00,VWS V14.01,2013-02-12 13:33:00,
2013-02-12 07:38:00,17.4,13.9,29.98,South,175,1.0,4.0,86,0.00,,---,0.00,16.00,VWS V14.01,2013-02-12 13:38:00,
2013-02-12 07:43:00,17.3,13.8,29.98,South,174,3.0,6.0,86,0.00,,---,0.00,25.00,VWS V14.01,2013-02-12 13:43:00,
2013-02-12 07:48:00,17.5,14.0,29.97,South,172,8.0,9.0,86,0.00,,---,0.00,32.00,VWS V14.01,2013-02-12 13:48:00,
2013-02-12 07:53:00,17.7,14.2,29.97,SSE,159,3.0,5.0,86,0.00,,---,0.00,40.00,VWS V14.01,2013-02-12 13:53:00,
2013-02-12 07:58:00,17.9,14.4,29.97,South,169,4.0,6.0,86,0.00,,---,0.00,51.00,VWS V14.01,2013-02-12 13:58:00,
2013-02-12 08:03:00,18.1,14.6,29.97,SSW,200,10.0,10.0,86,0.00,,---,0.00,62.00,VWS V14.01,2013-02-12 14:03:00,
2013-02-12 08:08:00,18.3,14.8,29.97,South,187,4.0,9.0,86,0.00,,---,0.00,76.00,VWS V14.01,2013-02-12 14:08:00,
2013-02-12 08:13:00,18.6,15.1,29.97,South,177,2.0,6.0,86,0.00,,---,0.00,88.00,VWS V14.01,2013-02-12 14:13:00,
2013-02-12 08:18:00,18.9,15.4,29.97,SSW,197,4.0,8.0,86,0.00,,---,0.00,104.00,VWS V14.01,2013-02-12 14:18:00,
2013-02-12 08:23:00,19.3,15.5,29.97,South,186,4.0,9.0,85,0.00,,---,0.00,120.00,VWS V14.01,2013-02-12 14:23:00,
2013-02-12 08:28:00,19.7,15.9,29.97,South,183,5.0,9.0,85,0.00,,---,0.00,132.00,VWS V14.01,2013-02-12 14:28:00,
2013-02-12 08:33:00,20.0,15.9,29.97,South,178,3.0,11.0,84,0.00,,---,0.00,149.00,VWS V14.01,2013-02-12 14:33:00,
2013-02-12 08:38:00,20.5,16.4,29.97,SSW,204,7.0,11.0,84,0.00,,---,0.00,165.00,VWS V14.01,2013-02-12 14:38:00,
2013-02-12 08:43:00,20.9,16.8,29.97,SSE,153,4.0,14.0,84,0.00,,---,0.00,183.00,VWS V14.01,2013-02-12 14:43:00,
2013-02-12 08:48:00,21.1,16.8,29.96,SSE,148,4.0,9.0,83,0.00,,---,0.00,197.00,VWS V14.01,2013-02-12 14:48:00,
2013-02-12 08:54:00,21.4,17.0,29.96,SSW,206,5.0,11.0,83,0.00,,---,0.00,211.00,VWS V14.01,2013-02-12 14:54:00,
2013-02-12 08:59:00,21.6,17.2,29.96,South,176,9.0,12.0,83,0.00,,---,0.00,227.00,VWS V14.01,2013-02-12 14:59:00,
2013-02-12 09:04:00,21.6,17.2,29.95,SSW,192,6.0,12.0,83,0.00,,---,0.00,241.00,VWS V14.01,2013-02-12 15:04:00,
2013-02-12 09:09:00,21.9,17.5,29.95,SSW,200,5.0,13.0,83,0.00,,---,0.00,255.00,VWS V14.01,2013-02-12 15:09:00,
2013-02-12 09:14:00,22.1,17.7,29.95,SSW,192,10.0,14.0,83,0.00,,---,0.00,274.00,VWS V14.01,2013-02-12 15:14:00,
2013-02-12 09:19:00,22.6,17.9,29.95,South,184,7.0,13.0,82,0.00,,---,0.00,301.00,VWS V14.01,2013-02-12 15:19:00,
2013-02-12 09:24:00,23.1,18.4,29.95,SSW,199,11.0,12.0,82,0.00,,---,0.00,332.00,VWS V14.01,2013-02-12 15:24:00,
2013-02-12 09:29:00,23.3,18.6,29.95,South,188,10.0,15.0,82,0.00,,---,0.00,320.00,VWS V14.01,2013-02-12 15:29:00,
2013-02-12 09:34:00,23.7,18.7,29.95,SSW,203,10.0,14.0,81,0.00,,---,0.00,338.00,VWS V14.01,2013-02-12 15:34:00,
2013-02-12 09:39:00,24.0,19.0,29.95,South,186,9.0,14.0,81,0.00,,---,0.00,371.00,VWS V14.01,2013-02-12 15:39:00,
2013-02-12 09:44:00,24.5,19.2,29.95,South,186,7.0,12.0,80,0.00,,---,0.00,417.00,VWS V14.01,2013-02-12 15:44:00,
2013-02-12 09:49:00,24.8,19.5,29.93,South,191,9.0,16.0,80,0.00,,---,0.00,499.00,VWS V14.01,2013-02-12 15:49:00,
2013-02-12 09:55:00,25.1,19.5,29.93,SSW,198,15.0,15.0,79,0.00,,---,0.00,510.00,VWS V14.01,2013-02-12 15:55:00,
2013-02-12 10:00:00,25.5,19.9,29.93,South,184,9.0,13.0,79,0.00,,---,0.00,373.00,VWS V14.01,2013-02-12 16:00:00,
2013-02-12 10:05:00,25.7,19.8,29.93,SSW,205,9.0,12.0,78,0.00,,---,0.00,311.00,VWS V14.01,2013-02-12 16:05:00,
2013-02-12 10:10:00,25.8,19.9,29.93,South,175,7.0,14.0,78,0.00,,---,0.00,318.00,VWS V14.01,2013-02-12 16:10:00,
2013-02-12 10:15:00,25.8,19.9,29.93,South,180,5.0,20.0,78,0.00,,---,0.00,313.00,VWS V14.01,2013-02-12 16:15:00,
2013-02-12 10:20:00,25.9,19.7,29.93,SSW,199,13.0,22.0,77,0.00,,---,0.00,464.00,VWS V14.01,2013-02-12 16:20:00,
2013-02-12 10:25:00,26.3,20.4,29.93,SSW,193,9.0,13.0,78,0.00,,---,0.00,506.00,VWS V14.01,2013-02-12 16:25:00,
2013-02-12 10:30:00,26.6,20.4,29.92,SSW,211,6.0,13.0,77,0.00,,---,0.00,309.00,VWS V14.01,2013-02-12 16:30:00,
2013-02-12 10:35:00,26.8,20.6,29.92,SSW,200,9.0,15.0,77,0.00,,---,0.00,352.00,VWS V14.01,2013-02-12 16:35:00,
2013-02-12 10:40:00,27.1,20.5,29.92,SSW,198,11.0,17.0,76,0.00,,---,0.00,387.00,VWS V14.01,2013-02-12 16:40:00,
2013-02-12 10:45:00,27.2,20.6,29.92,SW,215,14.0,17.0,76,0.00,,---,0.00,450.00,VWS V14.01,2013-02-12 16:45:00,
2013-02-12 10:51:00,27.4,20.8,29.92,South,184,13.0,13.0,76,0.00,,---,0.00,345.00,VWS V14.01,2013-02-12 16:51:00,
2013-02-12 10:56:00,27.7,21.1,29.92,South,173,13.0,13.0,76,0.00,,---,0.00,364.00,VWS V14.01,2013-02-12 16:56:00,
2013-02-12 11:01:00,27.9,21.0,29.91,SSW,207,8.0,13.0,75,0.00,,---,0.00,359.00,VWS V14.01,2013-02-12 17:01:00,
2013-02-12 11:06:00,27.9,20.7,29.91,SSW,204,6.0,13.0,74,0.00,,---,0.00,364.00,VWS V14.01,2013-02-12 17:06:00,
2013-02-12 11:11:00,28.3,21.1,29.91,SSW,196,6.0,14.0,74,0.00,,---,0.00,462.00,VWS V14.01,2013-02-12 17:11:00,
2013-02-12 11:16:00,28.7,21.8,29.92,SW,218,3.0,7.0,75,0.00,,---,0.00,503.00,VWS V14.01,2013-02-12 17:16:00,
2013-02-12 11:21:00,29.0,21.4,29.92,SSW,205,13.0,15.0,73,0.00,,---,0.00,410.00,VWS V14.01,2013-02-12 17:21:00,
2013-02-12 11:26:00,28.9,21.0,29.92,SW,219,10.0,16.0,72,0.00,,---,0.00,520.00,VWS V14.01,2013-02-12 17:26:00,
2013-02-12 11:31:00,29.1,21.5,29.92,SSW,202,5.0,9.0,73,0.00,,---,0.00,432.00,VWS V14.01,2013-02-12 17:31:00,
2013-02-12 11:36:00,29.5,21.6,29.92,SSW,211,14.0,15.0,72,0.00,,---,0.00,489.00,VWS V14.01,2013-02-12 17:36:00,
2013-02-12 11:41:00,29.4,21.5,29.92,SSW,209,11.0,18.0,72,0.00,,---,0.00,489.00,VWS V14.01,2013-02-12 17:41:00,
2013-02-12 11:46:00,29.1,21.2,29.91,SSW,206,15.0,17.0,72,0.00,,---,0.00,497.00,VWS V14.01,2013-02-12 17:46:00,
2013-02-12 11:52:00,29.4,21.5,29.91,SW,233,13.0,14.0,72,0.00,,---,0.00,497.00,VWS V14.01,2013-02-12 17:52:00,
2013-02-12 11:57:00,29.6,21.7,29.91,SSW,213,12.0,13.0,72,0.00,,---,0.00,497.00,VWS V14.01,2013-02-12 17:57:00,
2013-02-12 12:02:00,30.1,22.2,29.90,SW,232,4.0,7.0,72,0.00,,---,0.00,499.00,VWS V14.01,2013-02-12 18:02:00,
2013-02-12 12:07:00,30.5,22.2,29.90,SSW,207,7.0,7.0,71,0.00,,---,0.00,504.00,VWS V14.01,2013-02-12 18:07:00,
2013-02-12 12:12:00,30.3,21.7,29.90,SW,223,6.0,15.0,70,0.00,,---,0.00,506.00,VWS V14.01,2013-02-12 18:12:00,
2013-02-12 12:17:00,30.5,21.9,29.90,SW,215,7.0,12.0,70,0.00,,---,0.00,506.00,VWS V14.01,2013-02-12 18:17:00,
2013-02-12 12:22:00,30.8,22.5,29.90,SSW,202,5.0,12.0,71,0.00,,---,0.00,506.00,VWS V14.01,2013-02-12 18:22:00,
2013-02-12 12:27:00,31.3,22.3,29.90,WSW,238,3.0,11.0,69,0.00,,---,0.00,508.00,VWS V14.01,2013-02-12 18:27:00,
2013-02-12 12:32:00,31.7,23.0,29.88,SSW,196,10.0,10.0,70,0.00,,---,0.00,508.00,VWS V14.01,2013-02-12 18:32:00,
2013-02-12 12:37:00,31.7,22.4,29.88,WSW,241,4.0,11.0,68,0.00,,---,0.00,504.00,VWS V14.01,2013-02-12 18:37:00,
2013-02-12 12:42:00,32.1,22.4,29.88,WSW,248,10.0,15.0,67,0.00,,---,0.00,503.00,VWS V14.01,2013-02-12 18:42:00,
2013-02-12 12:47:00,31.9,21.9,29.87,SSW,205,4.0,13.0,66,0.00,,---,0.00,499.00,VWS V14.01,2013-02-12 18:47:00,
2013-02-12 12:52:00,32.1,22.4,29.87,SW,220,12.0,15.0,67,0.00,,---,0.00,497.00,VWS V14.01,2013-02-12 18:52:00,
2013-02-12 12:57:00,32.2,22.1,29.87,SW,214,11.0,14.0,66,0.00,,---,0.00,496.00,VWS V14.01,2013-02-12 18:57:00,
2013-02-12 13:02:00,32.3,21.9,29.87,SW,233,11.0,13.0,65,0.00,,---,0.00,492.00,VWS V14.01,2013-02-12 19:02:00,
2013-02-12 13:07:00,32.4,22.0,29.87,SW,223,9.0,16.0,65,0.00,,---,0.00,492.00,VWS V14.01,2013-02-12 19:07:00,
2013-02-12 13:12:00,32.4,22.0,29.87,SSW,210,12.0,14.0,65,0.00,,---,0.00,492.00,VWS V14.01,2013-02-12 19:12:00,
2013-02-12 13:17:00,32.6,22.1,29.85,South,176,8.0,13.0,65,0.00,,---,0.00,494.00,VWS V14.01,2013-02-12 19:17:00,
2013-02-12 13:22:00,33.0,22.5,29.85,SW,220,9.0,10.0,65,0.00,,---,0.00,450.00,VWS V14.01,2013-02-12 19:22:00,
2013-02-12 13:27:00,33.1,22.6,29.85,SW,229,2.0,15.0,65,0.00,,---,0.00,406.00,VWS V14.01,2013-02-12 19:27:00,
2013-02-12 13:33:00,33.1,22.6,29.86,WSW,248,9.0,13.0,65,0.00,,---,0.00,469.00,VWS V14.01,2013-02-12 19:33:00,
2013-02-12 13:38:00,32.9,22.4,29.86,SW,236,13.0,14.0,65,0.00,,---,0.00,462.00,VWS V14.01,2013-02-12 19:38:00,
2013-02-12 13:43:00,33.2,22.7,29.86,WSW,249,9.0,10.0,65,0.00,,---,0.00,455.00,VWS V14.01,2013-02-12 19:43:00,
2013-02-12 13:48:00,33.2,22.7,29.85,WSW,244,11.0,17.0,65,0.00,,---,0.00,450.00,VWS V14.01,2013-02-12 19:48:00,
2013-02-12 13:53:00,33.2,22.4,29.85,West,264,2.0,14.0,64,0.00,,---,0.00,441.00,VWS V14.01,2013-02-12 19:53:00,
2013-02-12 13:58:00,33.6,23.1,29.85,WSW,242,3.0,9.0,65,0.00,,---,0.00,434.00,VWS V14.01,2013-02-12 19:58:00,
2013-02-12 14:03:00,33.5,22.6,29.85,SW,230,6.0,11.0,64,0.00,,---,0.00,427.00,VWS V14.01,2013-02-12 20:03:00,
2013-02-12 14:08:00,33.6,22.7,29.85,West,277,5.0,15.0,64,0.00,,---,0.00,420.00,VWS V14.01,2013-02-12 20:08:00,
2013-02-12 14:13:00,33.7,23.2,29.85,SW,236,11.0,11.0,65,0.00,,---,0.00,410.00,VWS V14.01,2013-02-12 20:13:00,
2013-02-12 14:19:00,33.9,23.4,29.84,WSW,237,4.0,7.0,65,0.00,,---,0.00,403.00,VWS V14.01,2013-02-12 20:19:00,
2013-02-12 14:24:00,33.8,23.3,29.84,WSW,238,4.0,11.0,65,0.00,,---,0.00,396.00,VWS V14.01,2013-02-12 20:24:00,
2013-02-12 14:29:00,34.1,23.6,29.84,SSW,204,12.0,12.0,65,0.00,,---,0.00,387.00,VWS V14.01,2013-02-12 20:29:00,
2013-02-12 14:34:00,34.0,23.5,29.84,WSW,244,9.0,12.0,65,0.00,,---,0.00,378.00,VWS V14.01,2013-02-12 20:34:00,
2013-02-12 14:39:00,34.1,23.6,29.84,SSW,192,8.0,10.0,65,0.00,,---,0.00,367.00,VWS V14.01,2013-02-12 20:39:00,
2013-02-12 14:44:00,33.9,23.8,29.84,SW,228,6.0,12.0,66,0.00,,---,0.00,359.00,VWS V14.01,2013-02-12 20:44:00,
2013-02-12 14:49:00,34.3,24.1,29.84,WSW,245,4.0,10.0,66,0.00,,---,0.00,348.00,VWS V14.01,2013-02-12 20:49:00,
2013-02-12 14:54:00,33.9,23.4,29.84,SW,223,8.0,16.0,65,0.00,,---,0.00,336.00,VWS V14.01,2013-02-12 20:54:00,
2013-02-12 14:59:00,33.9,23.8,29.84,WSW,246,2.0,12.0,66,0.00,,---,0.00,329.00,VWS V14.01,2013-02-12 20:59:00,
2013-02-12 15:04:00,34.1,23.6,29.84,WSW,248,12.0,18.0,65,0.00,,---,0.00,318.00,VWS V14.01,2013-02-12 21:04:00,
2013-02-12 15:09:00,34.3,24.1,29.84,SW,222,10.0,12.0,66,0.01,,---,0.01,306.00,VWS V14.01,2013-02-12 21:09:00,
2013-02-12 15:14:00,33.9,23.4,29.84,SW,217,12.0,13.0,65,0.01,,---,0.01,294.00,VWS V14.01,2013-02-12 21:14:00,
2013-02-12 15:19:00,33.7,23.6,29.84,SSW,209,9.0,14.0,66,0.01,,---,0.01,281.00,VWS V14.01,2013-02-12 21:19:00,
2013-02-12 15:24:00,33.8,23.7,29.84,SW,229,12.0,13.0,66,0.01,,---,0.01,271.00,VWS V14.01,2013-02-12 21:24:00,
2013-02-12 15:29:00,33.9,24.1,29.84,WSW,245,5.0,9.0,67,0.01,,---,0.01,262.00,VWS V14.01,2013-02-12 21:29:00,
2013-02-12 15:34:00,33.9,23.8,29.84,SW,226,4.0,11.0,66,0.01,,---,0.01,248.00,VWS V14.01,2013-02-12 21:34:00,
2013-02-12 15:39:00,34.0,24.2,29.84,WSW,245,5.0,13.0,67,0.02,,---,0.02,237.00,VWS V14.01,2013-02-12 21:39:00,
2013-02-12 15:44:00,33.6,23.5,29.84,WSW,251,7.0,14.0,66,0.02,,---,0.02,227.00,VWS V14.01,2013-02-12 21:44:00,
2013-02-12 15:49:00,33.2,23.5,29.85,SW,234,9.0,14.0,67,0.02,,---,0.02,216.00,VWS V14.01,2013-02-12 21:49:00,
2013-02-12 15:55:00,33.3,23.9,29.85,SW,225,7.0,10.0,68,0.02,,---,0.02,202.00,VWS V14.01,2013-02-12 21:55:00,
2013-02-12 16:00:00,33.4,23.6,29.85,WSW,242,6.0,11.0,67,0.02,,---,0.02,190.00,VWS V14.01,2013-02-12 22:00:00,
2013-02-12 16:05:00,33.3,23.5,29.85,WSW,255,7.0,14.0,67,0.02,,---,0.02,178.00,VWS V14.01,2013-02-12 22:05:00,
2013-02-12 16:10:00,33.2,23.8,29.85,SW,223,13.0,14.0,68,0.01,,---,0.02,163.00,VWS V14.01,2013-02-12 22:10:00,
2013-02-12 16:15:00,33.2,23.8,29.85,SW,215,10.0,10.0,68,0.01,,---,0.02,149.00,VWS V14.01,2013-02-12 22:15:00,
2013-02-12 16:20:00,33.1,23.7,29.84,West,260,5.0,11.0,68,0.01,,---,0.02,135.00,VWS V14.01,2013-02-12 22:20:00,
2013-02-12 16:25:00,33.1,23.7,29.84,SW,219,6.0,10.0,68,0.01,,---,0.02,118.00,VWS V14.01,2013-02-12 22:25:00,
2013-02-12 16:30:00,32.7,23.0,29.84,WSW,240,12.0,14.0,67,0.01,,---,0.02,104.00,VWS V14.01,2013-02-12 22:30:00,
2013-02-12 16:35:00,32.5,23.1,29.84,SW,218,10.0,13.0,68,0.01,,---,0.02,90.00,VWS V14.01,2013-02-12 22:35:00,
2013-02-12 16:40:00,32.5,23.1,29.84,WSW,257,7.0,11.0,68,0.00,,---,0.02,77.00,VWS V14.01,2013-02-12 22:40:00,
2013-02-12 16:45:00,32.4,23.0,29.85,SW,232,5.0,12.0,68,0.00,,---,0.02,65.00,VWS V14.01,2013-02-12 22:45:00,
2013-02-12 16:50:00,32.4,23.4,29.85,West,259,3.0,12.0,69,0.01,,---,0.03,54.00,VWS V14.01,2013-02-12 22:50:00,
2013-02-12 16:55:00,32.1,23.1,29.85,West,263,6.0,11.0,69,0.01,,---,0.03,46.00,VWS V14.01,2013-02-12 22:55:00,
2013-02-12 17:00:00,31.7,22.7,29.85,SW,231,15.0,15.0,69,0.01,,---,0.03,35.00,VWS V14.01,2013-02-12 23:00:00,
2013-02-12 17:05:00,31.5,22.5,29.85,SW,225,10.0,11.0,69,0.01,,---,0.03,28.00,VWS V14.01,2013-02-12 23:05:00,
2013-02-12 17:10:00,31.2,22.6,29.85,WSW,252,2.0,10.0,70,0.01,,---,0.03,19.00,VWS V14.01,2013-02-12 23:10:00,
2013-02-12 17:15:00,31.0,22.7,29.85,WSW,244,4.0,6.0,71,0.01,,---,0.03,14.00,VWS V14.01,2013-02-12 23:15:00,
2013-02-12 17:21:00,30.6,22.3,29.85,WSW,248,4.0,6.0,71,0.01,,---,0.03,12.00,VWS V14.01,2013-02-12 23:21:00,
2013-02-12 17:26:00,30.4,22.5,29.85,WSW,244,2.0,12.0,72,0.01,,---,0.03,11.00,VWS V14.01,2013-02-12 23:26:00,
2013-02-12 17:31:00,30.1,22.2,29.85,SW,225,10.0,10.0,72,0.01,,---,0.03,9.00,VWS V14.01,2013-02-12 23:31:00,
2013-02-12 17:36:00,29.9,22.3,29.85,SW,224,10.0,12.0,73,0.01,,---,0.03,5.00,VWS V14.01,2013-02-12 23:36:00,
2013-02-12 17:41:00,29.8,22.2,29.85,SW,222,7.0,8.0,73,0.01,,---,0.03,0.00,VWS V14.01,2013-02-12 23:41:00,
2013-02-12 17:46:00,29.6,22.0,29.85,SSW,210,7.0,10.0,73,0.01,,---,0.03,0.00,VWS V14.01,2013-02-12 23:46:00,
2013-02-12 17:51:00,29.5,22.2,29.85,SW,233,1.0,6.0,74,0.00,,---,0.03,0.00,VWS V14.01,2013-02-12 23:51:00,
2013-02-12 17:56:00,29.3,22.1,29.85,SW,227,5.0,7.0,74,0.00,,---,0.03,0.00,VWS V14.01,2013-02-12 23:56:00,
2013-02-12 18:01:00,29.2,22.0,29.85,SW,226,5.0,8.0,74,0.00,,---,0.03,0.00,VWS V14.01,2013-02-13 00:01:00,
2013-02-12 18:06:00,29.1,21.9,29.85,SW,229,3.0,9.0,74,0.00,,---,0.03,0.00,VWS V14.01,2013-02-13 00:06:00,
2013-02-12 18:11:00,29.0,21.8,29.85,SW,230,5.0,5.0,74,0.00,,---,0.03,0.00,VWS V14.01,2013-02-13 00:11:00,
2013-02-12 18:16:00,28.8,21.9,29.85,SW,235,6.0,6.0,75,0.00,,---,0.03,0.00,VWS V14.01,2013-02-13 00:16:00,
2013-02-12 18:21:00,28.7,21.8,29.85,WSW,240,4.0,6.0,75,0.00,,---,0.03,0.00,VWS V14.01,2013-02-13 00:21:00,
2013-02-12 18:26:00,28.6,21.7,29.85,WSW,239,3.0,4.0,75,0.00,,---,0.03,0.00,VWS V14.01,2013-02-13 00:26:00,
2013-02-12 18:31:00,28.4,21.5,29.85,WSW,239,3.0,4.0,75,0.00,,---,0.03,0.00,VWS V14.01,2013-02-13 00:31:00,
2013-02-12 18:37:00,28.2,21.6,29.85,WSW,239,4.0,5.0,76,0.00,,---,0.03,0.00,VWS V14.01,2013-02-13 00:37:00,
2013-02-12 18:42:00,28.1,21.5,29.85,SW,225,5.0,6.0,76,0.00,,---,0.03,0.00,VWS V14.01,2013-02-13 00:42:00,
2013-02-12 18:47:00,28.1,21.5,29.85,SW,222,3.0,7.0,76,0.00,,---,0.03,0.00,VWS V14.01,2013-02-13 00:47:00,
2013-02-12 18:52:00,28.0,21.7,29.85,SW,227,5.0,8.0,77,0.00,,---,0.03,0.00,VWS V14.01,2013-02-13 00:52:00,
2013-02-12 18:57:00,27.9,21.6,29.85,SW,229,7.0,10.0,77,0.00,,---,0.03,0.00,VWS V14.01,2013-02-13 00:57:00,
2013-02-12 19:02:00,27.8,21.5,29.85,SW,231,4.0,9.0,77,0.00,,---,0.03,0.00,VWS V14.01,2013-02-13 01:02:00,
2013-02-12 19:07:00,27.7,21.4,29.85,SW,230,4.0,6.0,77,0.00,,---,0.03,0.00,VWS V14.01,2013-02-13 01:07:00,
2013-02-12 19:12:00,27.6,21.4,29.85,SW,234,4.0,7.0,77,0.00,,---,0.03,0.00,VWS V14.01,2013-02-13 01:12:00,
2013-02-12 19:17:00,27.5,21.5,29.84,SW,230,4.0,4.0,78,0.00,,---,0.03,0.00,VWS V14.01,2013-02-13 01:17:00,
2013-02-12 19:22:00,27.4,21.5,29.84,SW,225,2.0,5.0,78,0.00,,---,0.03,0.00,VWS V14.01,2013-02-13 01:22:00,
2013-02-12 19:27:00,27.3,21.4,29.84,SW,222,3.0,7.0,78,0.00,,---,0.03,0.00,VWS V14.01,2013-02-13 01:27:00,
2013-02-12 19:32:00,27.2,21.3,29.84,SW,215,5.0,9.0,78,0.00,,---,0.03,0.00,VWS V14.01,2013-02-13 01:32:00,
2013-02-12 19:37:00,27.1,21.2,29.84,SW,225,2.0,5.0,78,0.00,,---,0.03,0.00,VWS V14.01,2013-02-13 01:37:00,
2013-02-12 19:43:00,27.0,21.4,29.84,SW,225,5.0,10.0,79,0.00,,---,0.03,0.00,VWS V14.01,2013-02-13 01:43:00,
2013-02-12 19:48:00,26.9,21.3,29.84,SW,222,7.0,7.0,79,0.00,,---,0.03,0.00,VWS V14.01,2013-02-13 01:48:00,
2013-02-12 19:53:00,26.8,21.2,29.84,SW,221,4.0,5.0,79,0.00,,---,0.03,0.00,VWS V14.01,2013-02-13 01:53:00,
2013-02-12 19:58:00,26.7,21.1,29.84,SW,218,5.0,7.0,79,0.00,,---,0.03,0.00,VWS V14.01,2013-02-13 01:58:00,
2013-02-12 20:03:00,26.7,21.1,29.84,SW,235,7.0,8.0,79,0.00,,---,0.03,0.00,VWS V14.01,2013-02-13 02:03:00,
2013-02-12 20:08:00,26.6,21.0,29.84,SW,227,2.0,6.0,79,0.00,,---,0.03,0.00,VWS V14.01,2013-02-13 02:08:00,
2013-02-12 20:13:00,26.5,20.9,29.84,WSW,241,8.0,11.0,79,0.00,,---,0.03,0.00,VWS V14.01,2013-02-13 02:13:00,
2013-02-12 20:18:00,26.5,21.2,29.84,WSW,239,5.0,11.0,80,0.00,,---,0.03,0.00,VWS V14.01,2013-02-13 02:18:00,
2013-02-12 20:23:00,26.4,21.1,29.84,West,261,6.0,8.0,80,0.00,,---,0.03,0.00,VWS V14.01,2013-02-13 02:23:00,
2013-02-12 20:28:00,26.3,21.0,29.84,WSW,250,3.0,9.0,80,0.00,,---,0.03,0.00,VWS V14.01,2013-02-13 02:28:00,
2013-02-12 20:33:00,26.3,21.0,29.84,WSW,245,4.0,8.0,80,0.00,,---,0.03,0.00,VWS V14.01,2013-02-13 02:33:00,
2013-02-12 20:38:00,26.2,20.9,29.84,SW,233,3.0,9.0,80,0.00,,---,0.03,0.00,VWS V14.01,2013-02-13 02:38:00,
2013-02-12 20:43:00,26.1,20.8,29.84,SW,231,7.0,12.0,80,0.00,,---,0.03,0.00,VWS V14.01,2013-02-13 02:43:00,
2013-02-12 20:48:00,26.0,20.7,29.84,SW,236,8.0,9.0,80,0.00,,---,0.03,0.00,VWS V14.01,2013-02-13 02:48:00,
2013-02-12 20:53:00,25.9,20.6,29.84,WSW,240,5.0,6.0,80,0.00,,---,0.03,0.00,VWS V14.01,2013-02-13 02:53:00,
2013-02-12 20:58:00,25.8,20.5,29.84,WSW,243,3.0,8.0,80,0.00,,---,0.03,0.00,VWS V14.01,2013-02-13 02:58:00,
2013-02-12 21:03:00,25.7,20.4,29.84,WSW,237,7.0,8.0,80,0.00,,---,0.03,0.00,VWS V14.01,2013-02-13 03:03:00,
2013-02-12 21:09:00,25.6,20.3,29.84,WSW,253,4.0,12.0,80,0.00,,---,0.03,0.00,VWS V14.01,2013-02-13 03:09:00,
2013-02-12 21:14:00,25.4,20.4,29.84,WSW,248,2.0,6.0,81,0.00,,---,0.03,0.00,VWS V14.01,2013-02-13 03:14:00,
2013-02-12 21:19:00,25.3,20.3,29.83,WSW,254,9.0,9.0,81,0.00,,---,0.03,0.00,VWS V14.01,2013-02-13 03:19:00,
2013-02-12 21:24:00,25.3,20.3,29.83,SW,233,3.0,6.0,81,0.00,,---,0.03,0.00,VWS V14.01,2013-02-13 03:24:00,
2013-02-12 21:29:00,25.2,20.2,29.83,WSW,247,7.0,9.0,81,0.00,,---,0.03,0.00,VWS V14.01,2013-02-13 03:29:00,
2013-02-12 21:34:00,25.2,20.2,29.83,WSW,251,4.0,10.0,81,0.00,,---,0.03,0.00,VWS V14.01,2013-02-13 03:34:00,
2013-02-12 21:39:00,25.1,20.1,29.83,WSW,249,3.0,6.0,81,0.00,,---,0.03,0.00,VWS V14.01,2013-02-13 03:39:00,
2013-02-12 21:44:00,25.0,20.0,29.83,WSW,247,3.0,7.0,81,0.00,,---,0.03,0.00,VWS V14.01,2013-02-13 03:44:00,
2013-02-12 21:49:00,24.9,19.9,29.83,WSW,250,3.0,6.0,81,0.00,,---,0.03,0.00,VWS V14.01,2013-02-13 03:49:00,
2013-02-12 21:54:00,24.7,19.7,29.83,WSW,254,2.0,7.0,81,0.00,,---,0.03,0.00,VWS V14.01,2013-02-13 03:54:00,
2013-02-12 21:59:00,24.5,19.8,29.83,WSW,258,4.0,7.0,82,0.00,,---,0.03,0.00,VWS V14.01,2013-02-13 03:59:00,
2013-02-12 22:04:00,24.4,19.7,29.82,WSW,241,4.0,7.0,82,0.00,,---,0.03,0.00,VWS V14.01,2013-02-13 04:04:00,
2013-02-12 22:09:00,24.3,19.6,29.82,WSW,242,3.0,7.0,82,0.00,,---,0.03,0.00,VWS V14.01,2013-02-13 04:09:00,
2013-02-12 22:14:00,24.2,19.5,29.82,WSW,249,5.0,6.0,82,0.00,,---,0.03,0.00,VWS V14.01,2013-02-13 04:14:00,
2013-02-12 22:19:00,24.1,19.4,29.82,WSW,254,2.0,8.0,82,0.00,,---,0.03,0.00,VWS V14.01,2013-02-13 04:19:00,
2013-02-12 22:24:00,24.0,19.3,29.82,WSW,254,3.0,5.0,82,0.00,,---,0.03,0.00,VWS V14.01,2013-02-13 04:24:00,
2013-02-12 22:29:00,23.8,19.1,29.82,WSW,254,5.0,5.0,82,0.00,,---,0.03,0.00,VWS V14.01,2013-02-13 04:29:00,
2013-02-12 22:34:00,23.8,19.4,29.81,WSW,254,2.0,4.0,83,0.00,,---,0.03,0.00,VWS V14.01,2013-02-13 04:34:00,
2013-02-12 22:40:00,23.6,19.2,29.81,WSW,256,2.0,6.0,83,0.00,,---,0.03,0.00,VWS V14.01,2013-02-13 04:40:00,
2013-02-12 22:45:00,23.5,19.1,29.81,WSW,255,4.0,5.0,83,0.00,,---,0.03,0.00,VWS V14.01,2013-02-13 04:45:00,
2013-02-12 22:50:00,23.4,19.0,29.81,WSW,254,2.0,6.0,83,0.00,,---,0.03,0.00,VWS V14.01,2013-02-13 04:50:00,
2013-02-12 22:55:00,23.2,18.8,29.81,WSW,254,3.0,4.0,83,0.00,,---,0.03,0.00,VWS V14.01,2013-02-13 04:55:00,
2013-02-12 23:00:00,23.1,18.7,29.81,WSW,248,5.0,5.0,83,0.00,,---,0.03,0.00,VWS V14.01,2013-02-13 05:00:00,
2013-02-12 23:05:00,23.0,18.6,29.81,WSW,248,2.0,5.0,83,0.00,,---,0.03,0.00,VWS V14.01,2013-02-13 05:05:00,
2013-02-12 23:10:00,23.0,18.9,29.81,WSW,242,3.0,4.0,84,0.00,,---,0.03,0.00,VWS V14.01,2013-02-13 05:10:00,
2013-02-12 23:16:00,22.9,18.8,29.81,WSW,244,2.0,6.0,84,0.00,,---,0.03,0.00,VWS V14.01,2013-02-13 05:16:00,
2013-02-12 23:21:00,22.9,18.8,29.81,WSW,238,2.0,4.0,84,0.00,,---,0.03,0.00,VWS V14.01,2013-02-13 05:21:00,
2013-02-12 23:26:00,22.7,18.3,29.81,WSW,238,4.0,4.0,83,0.00,,---,0.03,0.00,VWS V14.01,2013-02-13 05:26:00,
2013-02-12 23:31:00,22.6,18.5,29.80,WSW,238,4.0,4.0,84,0.00,,---,0.03,0.00,VWS V14.01,2013-02-13 05:31:00,
2013-02-12 23:36:00,22.5,18.4,29.80,WSW,239,2.0,5.0,84,0.00,,---,0.03,0.00,VWS V14.01,2013-02-13 05:36:00,
2013-02-12 23:41:00,22.5,18.4,29.80,WSW,238,2.0,5.0,84,0.00,,---,0.03,0.00,VWS V14.01,2013-02-13 05:41:00,
2013-02-12 23:46:00,22.6,18.5,29.80,WSW,238,4.0,5.0,84,0.00,,---,0.03,0.00,VWS V14.01,2013-02-13 05:46:00,
2013-02-12 23:51:00,22.7,18.6,29.80,WSW,238,4.0,5.0,84,0.00,,---,0.03,0.00,VWS V14.01,2013-02-13 05:51:00,
2013-02-12 23:56:00,22.7,18.6,29.80,WSW,237,4.0,5.0,84,0.00,,---,0.03,0.00,VWS V14.01,2013-02-13 05:56:00,